createdAt,value
2023-02-25T00:02:15.506Z,3.29
2023-02-25T00:04:42.979Z,3.34
2023-02-25T00:07:10.477Z,3.35
2023-02-25T00:09:37.963Z,3.34
2023-02-25T00:12:05.643Z,3.36
2023-02-25T00:14:33.091Z,3.35
2023-02-25T00:17:02.093Z,3.34
2023-02-25T00:22:31.671Z,3.29
2023-02-25T00:24:59.087Z,3.40
2023-02-25T00:27:26.590Z,3.43
2023-02-25T00:32:45.961Z,3.41
2023-02-25T00:35:13.726Z,3.42
2023-02-25T00:37:41.170Z,3.39
2023-02-25T00:40:14.559Z,3.47
2023-02-25T00:42:42.537Z,3.37
2023-02-25T00:45:11.495Z,3.40
2023-02-25T00:47:39.257Z,3.50
2023-02-25T00:50:10.246Z,3.52
2023-02-25T00:55:33.227Z,3.53
2023-02-25T01:01:04.281Z,3.59
2023-02-25T01:03:31.777Z,3.51
2023-02-25T01:06:00.817Z,3.57
2023-02-25T01:08:28.531Z,3.61
2023-02-25T01:10:55.953Z,3.52
2023-02-25T01:13:23.635Z,3.44
2023-02-25T01:15:57.820Z,3.34
2023-02-25T01:18:25.278Z,3.52
2023-02-25T01:20:53.575Z,3.50
2023-02-25T01:23:23.584Z,3.52
2023-02-25T01:25:51.004Z,3.49
2023-02-25T01:28:18.445Z,3.40
2023-02-25T01:30:47.292Z,3.41
2023-02-25T01:33:14.731Z,3.37
2023-02-25T01:35:42.175Z,3.44
2023-02-25T01:38:09.637Z,3.36
2023-02-25T01:40:38.675Z,3.47
2023-02-25T01:43:07.650Z,3.45
2023-02-25T01:45:35.407Z,3.34
2023-02-25T01:48:07.958Z,3.44
2023-02-25T01:50:41.277Z,3.45
2023-02-25T01:55:59.373Z,3.38
2023-02-25T01:58:28.014Z,3.43
2023-02-25T02:03:53.807Z,3.46
2023-02-25T02:06:24.167Z,3.45
2023-02-25T02:08:51.846Z,3.55
2023-02-25T02:11:20.695Z,3.55
2023-02-25T02:13:50.792Z,3.40
2023-02-25T02:16:35.464Z,3.51
2023-02-25T02:19:09.122Z,3.48
2023-02-25T02:21:46.678Z,3.52
2023-02-25T02:24:34.913Z,3.51
2023-02-25T02:27:18.074Z,3.57
2023-02-25T02:30:28.252Z,3.59
2023-02-25T02:36:04.325Z,3.59
2023-02-25T02:41:36.484Z,3.69
2023-02-25T02:44:07.749Z,3.62
2023-02-25T02:46:38.225Z,3.61
2023-02-25T02:49:10.067Z,3.49
2023-02-25T02:51:41.098Z,3.45
2023-02-25T02:54:11.553Z,3.41
2023-02-25T02:56:41.146Z,3.51
2023-02-25T03:02:03.649Z,3.43
2023-02-25T03:04:33.649Z,3.53
2023-02-25T03:07:04.027Z,3.57
2023-02-25T03:09:36.640Z,3.48
2023-02-25T03:12:04.362Z,3.56
2023-02-25T03:14:34.330Z,3.57
2023-02-25T03:17:06.724Z,3.57
2023-02-25T03:22:42.219Z,3.59
2023-02-25T03:25:13.535Z,3.67
2023-02-25T03:30:42.013Z,3.68
2023-02-25T03:33:15.210Z,3.61
2023-02-25T03:35:43.652Z,3.61
2023-02-25T03:38:16.838Z,3.61
2023-02-25T03:40:44.490Z,3.53
2023-02-25T03:43:15.115Z,3.44
2023-02-25T03:45:44.339Z,3.44
2023-02-25T03:48:13.015Z,3.50
2023-02-25T03:50:43.640Z,3.47
2023-02-25T03:53:14.070Z,3.61
2023-02-25T03:55:50.606Z,3.43
2023-02-25T03:58:18.215Z,3.44
2023-02-25T04:03:34.617Z,3.44
2023-02-25T04:06:02.380Z,3.42
2023-02-25T04:08:31.147Z,3.49
2023-02-25T04:10:58.557Z,3.46
2023-02-25T04:13:26.055Z,3.50
2023-02-25T04:15:53.540Z,3.44
2023-02-25T04:21:29.578Z,3.44
2023-02-25T04:23:58.664Z,3.45
2023-02-25T04:29:14.612Z,3.54
2023-02-25T04:31:42.422Z,3.52
2023-02-25T04:34:09.928Z,3.54
2023-02-25T04:36:37.533Z,3.46
2023-02-25T04:39:06.411Z,3.51
2023-02-25T04:41:35.662Z,3.51
2023-02-25T04:44:04.777Z,3.37
2023-02-25T04:46:33.264Z,3.29
2023-02-25T04:49:01.250Z,3.44
2023-02-25T04:51:29.099Z,3.46
2023-02-25T04:53:56.935Z,3.34
2023-02-25T04:59:28.044Z,3.39
2023-02-25T05:01:55.634Z,3.39
2023-02-25T05:04:23.381Z,3.55
2023-02-25T05:06:50.817Z,3.36
2023-02-25T05:12:20.604Z,3.27
2023-02-25T05:14:50.132Z,3.29
2023-02-25T05:17:18.190Z,3.36
2023-02-25T05:20:09.608Z,3.39
2023-02-25T05:22:37.026Z,3.39
2023-02-25T05:27:52.691Z,3.46
2023-02-25T05:30:21.706Z,3.48
2023-02-25T05:32:49.357Z,3.40
2023-02-25T05:35:16.951Z,3.45
2023-02-25T05:37:44.402Z,3.49
2023-02-25T05:40:13.886Z,3.40
2023-02-25T05:42:41.296Z,3.41
2023-02-25T05:45:10.379Z,3.28
2023-02-25T05:47:39.357Z,3.38
2023-02-25T05:50:07.364Z,3.34
2023-02-25T05:52:34.791Z,3.32
2023-02-25T05:55:02.808Z,3.32
2023-02-25T05:57:30.533Z,3.35
2023-02-25T05:59:57.958Z,3.42
2023-02-25T06:02:25.466Z,3.43
2023-02-25T06:04:55.450Z,3.45
2023-02-25T06:07:22.856Z,3.34
2023-02-25T06:09:50.275Z,3.31
2023-02-25T06:12:17.706Z,3.27
2023-02-25T06:17:43.626Z,3.39
2023-02-25T06:20:15.419Z,3.31
2023-02-25T06:25:31.959Z,3.14
2023-02-25T06:27:59.656Z,3.21
2023-02-25T06:33:15.611Z,3.44
2023-02-25T06:35:44.418Z,3.42
2023-02-25T06:38:11.830Z,3.53
2023-02-25T06:40:39.275Z,3.62
2023-02-25T06:46:06.832Z,3.45
2023-02-25T06:48:34.262Z,3.48
2023-02-25T06:51:04.674Z,3.36
2023-02-25T06:53:32.105Z,3.34
2023-02-25T06:55:59.892Z,3.44
2023-02-25T06:58:27.339Z,3.45
2023-02-25T07:00:54.763Z,3.45
2023-02-25T07:03:22.247Z,3.45
2023-02-25T07:05:49.676Z,3.54
2023-02-25T07:08:43.580Z,3.59
2023-02-25T07:11:15.039Z,3.58
2023-02-25T07:13:43.685Z,3.47
2023-02-25T07:16:11.461Z,3.58
2023-02-25T07:18:38.978Z,3.55
2023-02-25T07:21:06.724Z,3.41
2023-02-25T07:23:34.368Z,3.40
2023-02-25T07:26:04.911Z,3.51
2023-02-25T07:28:32.721Z,3.59
2023-02-25T07:31:01.208Z,3.48
2023-02-25T07:33:29.379Z,3.58
2023-02-25T07:39:03.203Z,3.28
2023-02-25T07:41:31.963Z,3.52
2023-02-25T07:44:03.312Z,3.55
2023-02-25T07:49:33.804Z,3.86
2023-02-25T07:52:01.908Z,4.17
2023-02-25T07:54:29.376Z,4.71
2023-02-25T07:56:59.526Z,5.17
2023-02-25T08:02:25.666Z,6.66
2023-02-25T08:04:53.147Z,7.09
2023-02-25T08:07:21.183Z,6.79
2023-02-25T08:09:48.611Z,6.30
2023-02-25T08:15:16.158Z,6.08
2023-02-25T08:17:43.760Z,6.01
2023-02-25T08:20:13.810Z,6.01
2023-02-25T08:22:41.410Z,5.72
2023-02-25T08:28:07.651Z,5.98
2023-02-25T08:30:37.106Z,5.81
2023-02-25T08:33:04.949Z,5.79
2023-02-25T08:35:32.884Z,5.99
2023-02-25T08:40:48.638Z,5.64
2023-02-25T08:43:16.133Z,5.24
2023-02-25T08:45:45.044Z,5.35
2023-02-25T08:48:13.492Z,5.29
2023-02-25T08:53:34.134Z,4.93
2023-02-25T08:58:58.930Z,5.01
2023-02-25T09:01:41.957Z,5.16
2023-02-25T09:04:09.523Z,5.15
2023-02-25T09:06:37.036Z,4.93
2023-02-25T09:11:52.999Z,4.46
2023-02-25T09:14:21.132Z,4.48
2023-02-25T09:16:50.192Z,4.56
2023-02-25T09:19:18.333Z,4.63
2023-02-25T09:24:34.817Z,5.59
2023-02-25T09:27:07.365Z,5.76
2023-02-25T09:29:34.929Z,5.90
2023-02-25T09:32:03.999Z,6.19
2023-02-25T09:37:29.637Z,6.59
2023-02-25T09:39:57.388Z,6.77
2023-02-25T09:42:26.704Z,6.67
2023-02-25T09:44:58.360Z,6.77
2023-02-25T09:50:21.577Z,6.16
2023-02-25T09:52:54.670Z,5.34
2023-02-25T09:55:25.390Z,5.03
2023-02-25T09:57:57.386Z,4.97
2023-02-25T10:03:19.678Z,4.96
2023-02-25T10:08:56.699Z,5.07
2023-02-25T10:11:33.906Z,4.74
2023-02-25T10:14:09.003Z,4.52
2023-02-25T10:16:43.364Z,4.44
2023-02-25T10:22:22.496Z,4.31
2023-02-25T10:27:57.173Z,4.38
2023-02-25T10:30:31.166Z,4.61
2023-02-25T10:33:01.235Z,4.61
2023-02-25T10:35:32.316Z,4.55
2023-02-25T10:40:59.187Z,5.02
2023-02-25T10:43:28.428Z,5.27
2023-02-25T10:46:01.176Z,5.67
2023-02-25T10:48:28.912Z,6.15
2023-02-25T10:54:04.770Z,5.63
2023-02-25T10:59:39.296Z,5.47
2023-02-25T11:02:22.058Z,5.90
2023-02-25T11:04:52.281Z,6.45
2023-02-25T11:07:33.090Z,6.48
2023-02-25T11:12:59.360Z,5.34
2023-02-25T11:18:29.706Z,5.78
2023-02-25T11:20:59.032Z,6.49
2023-02-25T11:23:31.350Z,6.67
2023-02-25T11:25:58.889Z,7.03
2023-02-25T11:31:18.875Z,5.21
2023-02-25T11:33:52.810Z,4.97
2023-02-25T11:36:24.937Z,5.20
2023-02-25T11:39:07.100Z,5.75
2023-02-25T11:44:43.159Z,5.51
2023-02-25T11:50:25.166Z,5.00
2023-02-25T11:52:59.054Z,5.18
2023-02-25T11:55:38.928Z,5.51
2023-02-25T11:58:12.815Z,5.89
2023-02-25T12:03:52.286Z,6.44
2023-02-25T12:09:46.192Z,6.50
2023-02-25T12:15:50.213Z,5.90
2023-02-25T12:22:17.018Z,5.96
2023-02-25T12:24:58.401Z,5.89
2023-02-25T12:27:47.133Z,5.80
2023-02-25T12:30:35.517Z,5.84
2023-02-25T12:33:10.318Z,5.90
2023-02-25T12:36:25.416Z,5.90
2023-02-25T12:41:47.478Z,5.45
2023-02-25T12:47:26.019Z,5.50
2023-02-25T12:50:22.057Z,5.76
2023-02-25T12:53:04.488Z,6.00
2023-02-25T12:55:43.809Z,5.86
2023-02-25T12:58:43.746Z,5.86
2023-02-25T13:01:22.137Z,5.79
2023-02-25T13:07:03.588Z,6.02
2023-02-25T13:12:53.741Z,5.78
2023-02-25T13:15:29.406Z,6.04
2023-02-25T13:18:17.389Z,6.31
2023-02-25T13:20:54.955Z,5.85
2023-02-25T13:23:33.133Z,5.68
2023-02-25T13:29:12.709Z,6.06
2023-02-25T13:35:05.988Z,6.36
2023-02-25T13:37:42.317Z,6.21
2023-02-25T13:40:22.267Z,6.56
2023-02-25T13:43:19.560Z,5.95
2023-02-25T13:46:16.155Z,5.94
2023-02-25T13:49:06.815Z,5.65
2023-02-25T13:52:02.792Z,5.49
2023-02-25T13:54:41.168Z,5.42
2023-02-25T13:57:41.361Z,5.41
2023-02-25T14:00:45.762Z,5.52
2023-02-25T14:03:31.501Z,5.41
2023-02-25T14:06:04.337Z,6.02
2023-02-25T14:11:51.327Z,6.97
2023-02-25T14:14:35.488Z,6.67
2023-02-25T14:17:35.522Z,6.48
2023-02-25T14:20:20.952Z,5.86
2023-02-25T14:22:51.967Z,6.07
2023-02-25T14:25:33.218Z,5.80
2023-02-25T14:28:08.398Z,5.90
2023-02-25T14:30:42.301Z,6.58
2023-02-25T14:36:13.282Z,7.07
2023-02-25T14:39:01.841Z,7.49
2023-02-25T14:41:36.647Z,6.87
2023-02-25T14:44:11.011Z,5.92
2023-02-25T14:46:41.171Z,5.66
2023-02-25T14:49:12.935Z,6.03
2023-02-25T14:52:02.261Z,6.38
2023-02-25T14:55:02.125Z,7.00
2023-02-25T14:57:53.523Z,6.93
2023-02-25T15:00:50.997Z,7.05
2023-02-25T15:06:31.550Z,6.80
2023-02-25T15:12:22.740Z,5.72
2023-02-25T15:15:09.258Z,5.45
2023-02-25T15:18:16.449Z,5.23
2023-02-25T15:20:46.008Z,5.34
2023-02-25T15:23:15.872Z,5.78
2023-02-25T15:28:43.651Z,6.25
2023-02-25T15:31:28.228Z,6.28
2023-02-25T15:34:11.362Z,6.30
2023-02-25T15:36:48.318Z,6.30
2023-02-25T15:39:49.588Z,5.65
2023-02-25T15:42:17.478Z,5.75
2023-02-25T15:44:45.699Z,5.57
2023-02-25T15:47:27.908Z,5.64
2023-02-25T15:49:57.739Z,5.36
2023-02-25T15:52:56.215Z,5.05
2023-02-25T15:55:39.286Z,4.61
2023-02-25T15:58:43.897Z,4.35
2023-02-25T16:01:46.032Z,3.94
2023-02-25T16:04:50.537Z,3.63
2023-02-25T16:07:20.822Z,3.44
2023-02-25T16:12:54.648Z,3.86
2023-02-25T16:15:33.302Z,3.83
2023-02-25T16:18:21.741Z,3.30
2023-02-25T16:20:50.689Z,3.12
2023-02-25T16:23:23.354Z,3.17
2023-02-25T16:25:57.274Z,2.88
2023-02-25T16:31:19.499Z,3.44
2023-02-25T16:33:52.039Z,3.23
2023-02-25T16:36:25.895Z,3.08
2023-02-25T16:38:57.796Z,3.05
2023-02-25T16:44:33.924Z,2.96
2023-02-25T16:47:03.083Z,3.07
2023-02-25T16:49:32.800Z,3.29
2023-02-25T16:52:01.334Z,3.02
2023-02-25T16:54:32.403Z,3.05
2023-02-25T17:00:14.071Z,2.75
2023-02-25T17:02:47.466Z,2.44
2023-02-25T17:05:28.860Z,2.48
2023-02-25T17:07:59.443Z,2.11
2023-02-25T17:10:48.659Z,2.04
2023-02-25T17:13:20.822Z,2.02
2023-02-25T17:15:48.275Z,1.89
2023-02-25T17:18:24.509Z,1.74
2023-02-25T17:23:53.548Z,1.91
2023-02-25T17:26:21.835Z,1.69
2023-02-25T17:28:51.882Z,1.62
2023-02-25T17:31:24.418Z,1.73
2023-02-25T17:33:54.554Z,1.70
2023-02-25T17:36:24.865Z,1.67
2023-02-25T17:38:56.074Z,1.51
2023-02-25T17:41:24.063Z,1.52
2023-02-25T17:46:52.543Z,1.60
2023-02-25T17:49:27.382Z,1.79
2023-02-25T17:51:56.306Z,1.80
2023-02-25T17:54:25.804Z,1.66
2023-02-25T17:59:57.754Z,1.53
2023-02-25T18:05:25.539Z,1.48
2023-02-25T18:08:17.833Z,1.15
2023-02-25T18:10:51.107Z,1.18
2023-02-25T18:13:28.790Z,1.17
2023-02-25T18:16:29.532Z,0.95
2023-02-25T18:18:57.740Z,0.81
2023-02-25T18:21:26.784Z,0.56
2023-02-25T18:23:54.235Z,0.68
2023-02-25T18:26:24.337Z,0.68
2023-02-25T18:28:52.180Z,0.77
2023-02-25T18:31:20.717Z,0.67
2023-02-25T18:33:48.527Z,0.77
2023-02-25T18:36:23.400Z,0.79
2023-02-25T18:38:54.415Z,0.53
2023-02-25T18:41:21.876Z,0.39
2023-02-25T18:46:51.576Z,0.67
2023-02-25T18:49:19.544Z,0.49
2023-02-25T18:52:06.084Z,0.54
2023-02-25T18:54:35.055Z,0.30
2023-02-25T18:57:02.752Z,0.29
2023-02-25T18:59:30.186Z,0.41
2023-02-25T19:04:40.787Z,0.31
2023-02-25T19:07:10.553Z,0.33
2023-02-25T19:09:39.284Z,0.34
2023-02-25T19:12:06.911Z,0.41
2023-02-25T19:14:34.341Z,0.52
2023-02-25T19:20:05.404Z,0.79
2023-02-25T19:22:33.539Z,0.71
2023-02-25T19:25:02.315Z,0.79
2023-02-25T19:27:30.446Z,0.83
2023-02-25T19:29:59.482Z,0.76
2023-02-25T19:32:27.150Z,0.84
2023-02-25T19:34:54.640Z,1.00
2023-02-25T19:37:22.096Z,1.08
2023-02-25T19:39:49.782Z,1.05
2023-02-25T19:45:14.198Z,1.21
2023-02-25T19:50:54.642Z,1.06
2023-02-25T19:53:22.083Z,0.84
2023-02-25T19:55:49.587Z,0.80
2023-02-25T19:58:17.040Z,0.89
2023-02-25T20:03:44.012Z,1.12
2023-02-25T20:06:13.574Z,0.93
2023-02-25T20:11:27.629Z,0.84
2023-02-25T20:13:55.086Z,1.16
2023-02-25T20:16:24.529Z,1.03
2023-02-25T20:18:56.215Z,1.02
2023-02-25T20:21:23.779Z,1.21
2023-02-25T20:26:39.796Z,1.24
2023-02-25T20:29:07.836Z,1.22
2023-02-25T20:31:35.466Z,1.03
2023-02-25T20:34:05.788Z,1.19
2023-02-25T20:39:40.668Z,1.23
2023-02-25T20:45:15.517Z,1.38
2023-02-25T20:47:43.342Z,1.28
2023-02-25T20:50:16.194Z,1.26
2023-02-25T20:52:43.900Z,1.28
2023-02-25T20:55:11.984Z,1.25
2023-02-25T20:57:39.483Z,1.23
2023-02-25T21:00:09.858Z,1.38
2023-02-25T21:02:37.294Z,1.44
2023-02-25T21:05:06.340Z,1.16
2023-02-25T21:07:35.165Z,1.26
2023-02-25T21:10:02.600Z,1.19
2023-02-25T21:12:30.014Z,1.55
2023-02-25T21:17:45.667Z,0.91
2023-02-25T21:20:13.433Z,0.81
2023-02-25T21:22:42.226Z,0.50
2023-02-25T21:25:10.085Z,0.42
2023-02-25T21:30:36.657Z,0.34
2023-02-25T21:33:04.371Z,0.27
2023-02-25T21:35:31.815Z,0.27
2023-02-25T21:38:00.590Z,0.27
2023-02-25T21:40:28.238Z,0.05
2023-02-25T21:42:56.530Z,0.18
2023-02-25T21:45:23.938Z,-0.09
2023-02-25T21:47:51.423Z,0.03
2023-02-25T21:50:19.155Z,0.11
2023-02-25T21:55:43.672Z,-0.08
2023-02-25T21:58:11.143Z,-0.17
2023-02-25T22:03:43.082Z,-0.34
2023-02-25T22:06:10.912Z,-0.33
2023-02-25T22:08:40.105Z,-0.43
2023-02-25T22:11:13.203Z,-0.41
2023-02-25T22:13:40.886Z,-0.29
2023-02-25T22:16:08.610Z,-0.42
2023-02-25T22:21:38.561Z,-0.42
2023-02-25T22:24:06.464Z,-0.32
2023-02-25T22:26:36.564Z,-0.50
2023-02-25T22:29:06.609Z,-0.86
2023-02-25T22:31:34.828Z,-0.57
2023-02-25T22:34:02.666Z,-0.48
2023-02-25T22:36:30.176Z,-0.48
2023-02-25T22:41:47.904Z,-0.55
2023-02-25T22:44:17.939Z,-0.51
2023-02-25T22:46:45.406Z,-0.65
2023-02-25T22:52:15.622Z,-0.59
2023-02-25T22:54:43.129Z,-0.67
2023-02-25T22:57:11.956Z,-0.71
2023-02-25T22:59:39.454Z,-0.84
2023-02-25T23:05:10.029Z,-0.98
2023-02-25T23:07:37.578Z,-1.14
2023-02-25T23:10:05.782Z,-1.11
2023-02-25T23:12:34.539Z,-1.07
2023-02-25T23:15:01.965Z,-1.13
2023-02-25T23:17:29.397Z,-1.41
2023-02-25T23:20:00.127Z,-1.32
2023-02-25T23:25:26.713Z,-1.44
2023-02-25T23:27:57.022Z,-1.44
2023-02-25T23:33:26.561Z,-1.55
2023-02-25T23:35:54.037Z,-1.49
2023-02-25T23:38:22.799Z,-1.50
2023-02-25T23:40:50.423Z,-1.48
2023-02-25T23:43:19.202Z,-1.46
2023-02-25T23:45:47.297Z,-1.31
2023-02-25T23:48:15.009Z,-1.35
2023-02-25T23:50:42.420Z,-1.36
2023-02-25T23:53:09.859Z,-1.35
2023-02-25T23:58:26.910Z,-1.28
